Time;durP1;ratioP1;P1;durP2;ratioP2;P2;SDS_P1;SDS_P2;PMS_P1;PMS_P2;Temp;Humidity;BMP_temperature;BMP_pressure;BME280_temperature;BME280_humidity;BME280_pressure;Samples;Min_cycle;Max_cycle;Signal;HPM_P1;HPM_P2
2023/04/26 00:02:04;;;;;;;6.63;2.33;;;;;;;;;;4974784;28;25062;-78
2023/04/26 00:04:30;;;;;;;8.82;2.45;;;;;;;;;;4975587;28;25068;-76
2023/04/26 00:06:57;;;;;;;6.57;2.40;;;;;;;;;;4968933;28;25044;-78
2023/04/26 00:09:23;;;;;;;4.45;1.92;;;;;;;;;;4988297;28;25071;-78
2023/04/26 00:11:49;;;;;;;7.00;3.03;;;;;;;;;;4982494;28;25046;-78
2023/04/26 00:14:16;;;;;;;7.85;2.60;;;;;;;;;;4974817;28;25142;-79
2023/04/26 00:16:42;;;;;;;7.30;2.05;;;;;;;;;;4963647;28;25052;-76
2023/04/26 00:19:08;;;;;;;9.80;2.22;;;;;;;;;;4974773;28;25072;-78
2023/04/26 00:21:35;;;;;;;6.00;2.35;;;;;;;;;;4978252;28;25164;-78
2023/04/26 00:24:01;;;;;;;7.65;2.47;;;;;;;;;;4973189;28;25069;-76
2023/04/26 00:26:28;;;;;;;8.50;2.78;;;;;;;;;;4976053;28;25089;-77
2023/04/26 00:28:55;;;;;;;6.45;2.88;;;;;;;;;;4983271;28;25073;-77
2023/04/26 00:31:21;;;;;;;11.13;3.35;;;;;;;;;;4966107;28;25150;-78
2023/04/26 00:33:46;;;;;;;9.02;2.45;;;;;;;;;;4979825;28;25080;-79
2023/04/26 00:36:13;;;;;;;7.35;2.40;;;;;;;;;;4970233;28;25080;-77
2023/04/26 00:38:40;;;;;;;10.15;2.65;;;;;;;;;;4972070;28;25054;-77
2023/04/26 00:41:06;;;;;;;7.40;2.30;;;;;;;;;;5004803;28;25049;-76
2023/04/26 00:43:32;;;;;;;12.70;2.90;;;;;;;;;;4983383;28;25060;-78
2023/04/26 00:46:00;;;;;;;11.05;2.80;;;6.20;99.90;;;;;;4981174;28;25095;-80
2023/04/26 00:48:26;;;;;;;8.65;2.90;;;;;;;;;;4986079;28;25091;-78
2023/04/26 00:50:52;;;;;;;6.13;2.65;;;;;;;;;;4977058;28;25097;-77
2023/04/26 00:53:18;;;;;;;10.50;2.25;;;;;;;;;;4993536;28;25070;-77
2023/04/26 00:55:45;;;;;;;4.32;2.20;;;;;;;;;;4974384;28;25077;-79
2023/04/26 00:58:11;;;;;;;6.32;2.45;;;;;;;;;;4975169;28;25061;-77
2023/04/26 01:00:37;;;;;;;5.18;1.73;;;;;;;;;;4975751;28;25052;-78
2023/04/26 01:03:03;;;;;;;8.15;2.10;;;;;;;;;;4967011;28;25062;-75
2023/04/26 01:05:29;;;;;;;6.80;2.60;;;6.20;99.90;;;;;;4975785;28;25071;-78
2023/04/26 01:07:55;;;;;;;5.47;1.88;;;;;;;;;;4981566;28;25072;-78
2023/04/26 01:10:21;;;;;;;7.97;1.95;;;;;;;;;;4972368;28;25067;-76
2023/04/26 01:12:47;;;;;;;6.88;1.83;;;;;;;;;;4994320;28;25096;-79
2023/04/26 01:15:13;;;;;;;7.13;2.10;;;;;;;;;;4978383;28;25072;-79
2023/04/26 01:17:39;;;;;;;3.67;1.98;;;;;;;;;;4975782;28;25080;-79
2023/04/26 01:20:08;;;;;;;7.95;2.83;;;;;;;;;;4974810;28;25066;-78
2023/04/26 01:22:35;;;;;;;7.18;2.20;;;;;;;;;;4981545;28;25052;-78
2023/04/26 01:25:03;;;;;;;3.53;2.10;;;;;;;;;;4970150;28;25104;-79
2023/04/26 01:27:29;;;;;;;6.28;2.15;;;;;;;;;;4974779;28;25051;-78
2023/04/26 01:29:55;;;;;;;7.20;2.22;;;;;;;;;;4976794;28;25058;-77
2023/04/26 01:32:21;;;;;;;11.73;3.15;;;;;;;;;;4965729;28;25044;-79
2023/04/26 01:34:47;;;;;;;3.83;2.40;;;;;;;;;;4974485;28;25108;-77
2023/04/26 01:37:13;;;;;;;10.77;2.40;;;;;;;;;;4975743;28;25059;-77
2023/04/26 01:39:39;;;;;;;5.70;2.78;;;;;;;;;;4982315;28;25071;-77
2023/04/26 01:42:06;;;;;;;7.72;2.47;;;;;;;;;;4984469;28;25066;-78
2023/04/26 01:44:32;;;;;;;8.88;2.75;;;;;;;;;;4975592;28;25070;-77
2023/04/26 01:46:58;;;;;;;9.00;3.13;;;;;;;;;;4979235;28;25061;-78
2023/04/26 01:49:24;;;;;;;7.65;2.92;;;;;;;;;;4970249;28;25088;-77
2023/04/26 01:51:50;;;;;;;7.68;2.58;;;;;;;;;;4975275;28;25066;-79
2023/04/26 01:54:16;;;;;;;4.45;2.35;;;;;;;;;;4987987;28;25081;-79
2023/04/26 01:56:42;;;;;;;9.45;2.92;;;;;;;;;;4978738;28;25080;-76
2023/04/26 01:59:08;;;;;;;5.47;2.45;;;;;;;;;;4971171;28;25062;-78
2023/04/26 02:01:34;;;;;;;6.88;2.38;;;;;;;;;;4989594;28;25063;-77
2023/04/26 02:04:00;;;;;;;5.00;2.40;;;;;;;;;;4993314;28;25083;-75
2023/04/26 02:06:26;;;;;;;9.07;2.67;;;;;;;;;;4977770;28;25067;-80
2023/04/26 02:08:53;;;;;;;9.13;3.17;;;;;;;;;;4992840;28;25113;-77
2023/04/26 02:11:19;;;;;;;14.40;3.25;;;;;;;;;;4974696;28;25094;-77
2023/04/26 02:13:45;;;;;;;5.85;2.88;;;;;;;;;;4980308;28;25051;-77
2023/04/26 02:16:11;;;;;;;9.27;2.70;;;;;;;;;;4991949;28;25083;-76
2023/04/26 02:18:37;;;;;;;10.68;3.05;;;;;;;;;;4984281;28;25099;-77
2023/04/26 02:21:07;;;;;;;16.80;2.88;;;;;;;;;;5002645;28;25047;-77
2023/04/26 02:23:33;;;;;;;10.02;3.47;;;;;;;;;;4982249;28;25161;-76
2023/04/26 02:25:59;;;;;;;10.18;3.03;;;;;;;;;;4977663;28;25066;-78
2023/04/26 02:28:25;;;;;;;9.23;3.00;;;;;;;;;;5004763;28;25130;-78
2023/04/26 02:30:51;;;;;;;8.60;3.03;;;;;;;;;;5007851;28;25065;-77
2023/04/26 02:33:17;;;;;;;10.10;3.10;;;;;;;;;;4982805;28;25116;-78
2023/04/26 02:35:44;;;;;;;5.60;2.97;;;;;;;;;;4977961;28;25067;-78
2023/04/26 02:38:10;;;;;;;7.60;3.05;;;;;;;;;;4974864;28;25076;-76
2023/04/26 02:40:36;;;;;;;9.82;3.75;;;;;;;;;;4974697;28;25104;-78
2023/04/26 02:43:02;;;;;;;7.63;3.08;;;;;;;;;;4982407;28;25138;-78
2023/04/26 02:45:28;;;;;;;7.07;2.90;;;;;;;;;;4990299;28;25060;-77
2023/04/26 02:47:54;;;;;;;9.90;3.08;;;;;;;;;;4991960;28;25088;-77
2023/04/26 02:50:20;;;;;;;11.20;4.88;;;;;;;;;;4986667;28;25158;-77
2023/04/26 02:52:46;;;;;;;5.13;3.15;;;;;;;;;;4997555;28;25082;-77
2023/04/26 02:55:13;;;;;;;11.00;4.18;;;;;;;;;;4980317;28;25117;-77
2023/04/26 02:57:39;;;;;;;10.32;3.45;;;;;;;;;;4982155;28;25061;-79
2023/04/26 03:00:06;;;;;;;13.38;4.05;;;;;;;;;;4981158;28;25077;-77
2023/04/26 03:02:32;;;;;;;10.25;4.43;;;;;;;;;;4979272;28;25109;-77
2023/04/26 03:04:58;;;;;;;9.35;4.22;;;;;;;;;;4975132;28;25108;-78
2023/04/26 03:07:25;;;;;;;11.80;4.00;;;;;;;;;;4986341;28;25079;-77
2023/04/26 03:09:51;;;;;;;15.60;5.00;;;;;;;;;;4985640;28;25148;-77
2023/04/26 03:12:17;;;;;;;9.95;4.55;;;;;;;;;;4986615;28;25062;-76
2023/04/26 03:14:43;;;;;;;12.15;4.03;;;;;;;;;;4990729;28;25112;-76
2023/04/26 03:17:10;;;;;;;14.95;3.72;;;;;;;;;;4978087;28;25060;-76
2023/04/26 03:19:38;;;;;;;9.40;4.47;;;;;;;;;;4974995;28;25078;-80
2023/04/26 03:22:04;;;;;;;10.43;4.18;;;;;;;;;;4999490;28;25053;-79
2023/04/26 03:24:30;;;;;;;10.40;4.20;;;;;;;;;;4976660;28;25060;-78
2023/04/26 03:26:56;;;;;;;8.27;4.53;;;;;;;;;;4978008;28;25097;-76
2023/04/26 03:29:22;;;;;;;11.65;4.50;;;;;;;;;;4976610;28;25125;-76
2023/04/26 03:31:48;;;;;;;9.93;5.22;;;;;;;;;;4976816;28;25094;-78
2023/04/26 03:34:14;;;;;;;10.15;5.13;;;;;;;;;;4972872;28;25064;-77
2023/04/26 03:36:40;;;;;;;12.18;4.90;;;;;;;;;;4985396;28;25105;-77
2023/04/26 03:39:06;;;;;;;11.70;5.35;;;;;;;;;;4968289;28;25067;-76
2023/04/26 03:41:34;;;;;;;9.88;4.45;;;;;;;;;;4974902;28;25078;-78
2023/04/26 03:44:00;;;;;;;18.30;5.32;;;;;;;;;;4987243;28;25189;-76
2023/04/26 03:46:26;;;;;;;10.57;4.70;;;;;;;;;;4979660;28;25079;-77
2023/04/26 03:48:52;;;;;;;12.30;5.07;;;;;;;;;;4976390;28;25088;-76
2023/04/26 03:51:18;;;;;;;9.57;5.22;;;;;;;;;;4981246;28;25063;-78
2023/04/26 03:53:47;;;;;;;14.07;5.10;;;;;;;;;;4984929;28;25064;-78
2023/04/26 03:56:13;;;;;;;13.85;5.32;;;;;;;;;;4975450;28;25171;-78
2023/04/26 03:58:39;;;;;;;9.90;5.32;;;;;;;;;;4995981;28;25096;-77
2023/04/26 04:01:05;;;;;;;10.25;5.28;;;;;;;;;;4976178;28;25093;-78
2023/04/26 04:03:31;;;;;;;12.65;5.38;;;;;;;;;;4990131;28;25100;-77
2023/04/26 04:05:57;;;;;;;11.18;5.10;;;;;;;;;;4979238;28;25100;-78
2023/04/26 04:08:23;;;;;;;14.20;6.15;;;;;;;;;;4980362;28;25084;-76
2023/04/26 04:10:49;;;;;;;10.65;5.07;;;;;;;;;;4992011;28;25062;-78
2023/04/26 04:13:15;;;;;;;12.63;5.65;;;;;;;;;;4976621;28;25068;-79
2023/04/26 04:15:41;;;;;;;16.13;5.45;;;;;;;;;;4970892;28;25059;-78
2023/04/26 04:18:07;;;;;;;11.07;5.18;;;;;;;;;;4974384;28;25155;-76
2023/04/26 04:20:33;;;;;;;14.90;6.15;;;;;;;;;;4976598;28;25116;-79
2023/04/26 04:23:00;;;;;;;11.00;4.95;;;;;;;;;;4971076;28;25064;-78
2023/04/26 04:25:27;;;;;;;10.80;5.68;;;;;;;;;;4977305;28;25101;-78
2023/04/26 04:27:52;;;;;;;11.07;5.60;;;;;;;;;;4982383;28;25091;-78
2023/04/26 04:30:18;;;;;;;18.38;5.43;;;;;;;;;;4985551;28;25057;-76
2023/04/26 04:32:45;;;;;;;20.08;6.47;;;;;;;;;;4976364;28;25062;-76
2023/04/26 04:35:12;;;;;;;13.13;6.18;;;;;;;;;;4989383;28;25090;-77
2023/04/26 04:37:38;;;;;;;11.13;5.50;;;;;;;;;;4986935;28;25088;-78
2023/04/26 04:40:04;;;;;;;8.85;5.13;;;;;;;;;;4976308;28;25067;-79
2023/04/26 04:42:31;;;;;;;15.50;5.88;;;;;;;;;;4989933;28;25100;-78
2023/04/26 04:44:58;;;;;;;12.00;6.00;;;;;;;;;;4973562;28;25070;-76
2023/04/26 04:47:24;;;;;;;11.10;4.38;;;;;;;;;;4993692;28;25078;-78
2023/04/26 04:49:50;;;;;;;13.93;5.85;;;;;;;;;;4981884;28;25063;-76
2023/04/26 04:52:16;;;;;;;15.80;5.88;;;;;;;;;;4983995;28;25122;-79
2023/04/26 04:54:42;;;;;;;16.08;5.80;;;;;;;;;;4975025;28;25061;-77
2023/04/26 04:57:09;;;;;;;11.43;6.22;;;;;;;;;;5002229;28;25048;-78
2023/04/26 04:59:35;;;;;;;19.63;5.30;;;;;;;;;;4982694;28;25100;-78
2023/04/26 05:02:01;;;;;;;17.73;5.47;;;;;;;;;;4980668;28;25115;-78
2023/04/26 05:04:32;;;;;;;13.95;5.38;;;;;;;;;;4981600;28;25063;-79
2023/04/26 05:06:58;;;;;;;13.50;5.75;;;;;;;;;;4976553;28;25059;-78
2023/04/26 05:09:25;;;;;;;17.35;5.55;;;;;;;;;;4969976;28;25124;-80
2023/04/26 05:11:51;;;;;;;11.57;5.85;;;;;;;;;;4974939;28;25103;-79
2023/04/26 05:14:17;;;;;;;14.95;5.88;;;;;;;;;;4976786;28;25059;-79
2023/04/26 05:16:43;;;;;;;10.60;5.07;;;;;;;;;;4981108;28;25070;-77
2023/04/26 05:19:09;;;;;;;13.57;5.40;;;;;;;;;;4990364;28;25077;-73
2023/04/26 05:21:35;;;;;;;19.05;5.82;;;;;;;;;;4988230;28;25102;-77
2023/04/26 05:24:01;;;;;;;17.38;5.97;;;;;;;;;;4981062;28;25082;-77
2023/04/26 05:26:27;;;;;;;13.52;5.70;;;;;;;;;;4999636;28;25054;-78
2023/04/26 05:28:53;;;;;;;9.30;5.30;;;;;;;;;;4978998;28;25103;-77
2023/04/26 05:31:20;;;;;;;12.75;6.32;;;;;;;;;;4972111;28;25144;-79
2023/04/26 05:33:46;;;;;;;11.82;5.15;;;;;;;;;;4975440;28;25055;-78
2023/04/26 05:36:12;;;;;;;12.43;4.85;;;;;;;;;;4966426;28;25080;-79
2023/04/26 05:38:38;;;;;;;12.30;5.10;;;;;;;;;;4963976;28;25051;-79
2023/04/26 05:41:04;;;;;;;10.48;4.07;;;;;;;;;;4962897;28;25123;-78
2023/04/26 05:43:30;;;;;;;10.25;3.92;;;;;;;;;;4964696;28;25110;-79
2023/04/26 05:45:56;;;;;;;10.95;3.85;;;;;;;;;;4958004;28;25098;-79
2023/04/26 05:48:24;;;;;;;11.60;4.38;;;;;;;;;;4963752;28;25042;-74
2023/04/26 05:50:50;;;;;;;5.72;3.53;;;;;;;;;;4965910;28;25106;-76
2023/04/26 05:53:18;;;;;;;13.40;4.53;;;;;;;;;;4964203;28;25112;-77
2023/04/26 05:55:44;;;;;;;13.18;4.65;;;;;;;;;;4971574;28;25093;-79
2023/04/26 05:58:10;;;;;;;14.98;4.53;;;;;;;;;;4972625;28;25067;-78
2023/04/26 06:00:37;;;;;;;12.45;5.30;;;;;;;;;;4970118;28;25070;-78
2023/04/26 06:03:03;;;;;;;17.77;5.90;;;;;;;;;;4978787;28;25109;-76
2023/04/26 06:05:29;;;;;;;14.35;6.55;;;;;;;;;;4976310;28;25063;-79
2023/04/26 06:07:56;;;;;;;11.70;6.13;;;;;;;;;;4994324;28;25068;-78
2023/04/26 06:10:22;;;;;;;12.90;6.28;;;;;;;;;;4975070;28;25084;-77
2023/04/26 06:12:48;;;;;;;13.85;5.10;;;;;;;;;;4979279;28;25125;-77
2023/04/26 06:15:14;;;;;;;15.15;6.72;;;;;;;;;;4966254;28;25052;-78
2023/04/26 06:17:40;;;;;;;21.80;7.40;;;;;;;;;;4972100;28;25069;-78
2023/04/26 06:20:08;;;;;;;16.02;6.82;;;;;;;;;;4971672;28;25077;-77
2023/04/26 06:22:34;;;;;;;18.52;7.50;;;;;;;;;;4971381;28;25057;-78
2023/04/26 06:25:00;;;;;;;16.23;7.45;;;;;;;;;;4963393;28;25056;-76
2023/04/26 06:27:26;;;;;;;17.63;6.93;;;;;;;;;;4992501;28;25067;-78
2023/04/26 06:29:52;;;;;;;13.63;6.65;;;;;;;;;;4980605;28;25051;-77
2023/04/26 06:32:18;;;;;;;14.25;6.20;;;;;;;;;;4976203;28;25128;-77
2023/04/26 06:34:44;;;;;;;15.85;6.32;;;;;;;;;;4971472;28;25072;-77
2023/04/26 06:37:10;;;;;;;21.80;7.25;;;;;;;;;;4970910;28;25045;-76
2023/04/26 06:39:40;;;;;;;15.27;6.18;;;;;;;;;;4970423;28;25142;-77
2023/04/26 06:42:06;;;;;;;14.43;6.50;;;;;;;;;;4963941;28;25067;-78
2023/04/26 06:44:32;;;;;;;12.95;5.90;;;;;;;;;;4967719;28;25123;-77
2023/04/26 06:46:58;;;;;;;11.48;5.97;;;;;;;;;;4972857;28;25125;-75
2023/04/26 06:49:24;;;;;;;15.75;6.38;;;;;;;;;;4975244;28;25076;-75
2023/04/26 06:51:51;;;;;;;19.00;8.43;;;;;;;;;;4973102;28;25057;-75
2023/04/26 06:54:17;;;;;;;13.45;6.22;;;;;;;;;;4964224;28;25080;-76
2023/04/26 06:56:43;;;;;;;19.48;6.45;;;;;;;;;;4970922;28;25061;-75
2023/04/26 06:59:09;;;;;;;13.63;5.10;;;;;;;;;;4968290;28;25065;-77
2023/04/26 07:01:35;;;;;;;12.15;5.32;;;;;;;;;;4966684;28;25114;-76
2023/04/26 07:04:11;;;;;;;17.83;5.90;;;;;;;;;;4962254;28;25146;-76
2023/04/26 07:06:40;;;;;;;11.10;3.35;;;;;;;;;;4970666;28;25052;-77
2023/04/26 07:09:07;;;;;;;8.00;3.55;;;;;;;;;;4973661;28;25159;-77
2023/04/26 07:11:33;;;;;;;8.23;2.80;;;;;;;;;;4976674;28;25070;-75
2023/04/26 07:13:59;;;;;;;10.05;2.83;;;;;;;;;;4977998;28;25121;-76
2023/04/26 07:16:26;;;;;;;11.23;3.50;;;;;;;;;;4970644;28;25157;-77
2023/04/26 07:18:52;;;;;;;6.07;2.28;;;;;;;;;;4975532;28;25128;-79
2023/04/26 07:21:18;;;;;;;4.53;1.98;;;;;;;;;;4965735;28;25065;-76
2023/04/26 07:23:44;;;;;;;5.43;2.03;;;;;;;;;;4960664;28;25083;-76
2023/04/26 07:26:11;;;;;;;10.40;1.73;;;;;;;;;;4966108;28;25052;-76
2023/04/26 07:28:37;;;;;;;11.18;2.85;;;;;;;;;;4966874;28;25161;-73
2023/04/26 07:31:03;;;;;;;15.90;3.95;;;;;;;;;;4972828;28;25084;-77
2023/04/26 07:33:29;;;;;;;4.85;2.80;;;;;;;;;;4966978;28;25068;-76
2023/04/26 07:35:56;;;;;;;7.15;3.38;;;;;;;;;;4965113;28;25058;-78
2023/04/26 07:38:22;;;;;;;1.77;1.05;;;;;;;;;;4973037;28;25071;-77
2023/04/26 07:40:48;;;;;;;6.60;2.08;;;;;;;;;;4975299;28;25051;-75
2023/04/26 07:43:14;;;;;;;4.43;1.38;;;;;;;;;;4973168;28;25095;-75
2023/04/26 07:45:41;;;;;;;4.15;1.05;;;;;;;;;;4974180;28;25069;-75
2023/04/26 07:48:07;;;;;;;2.35;1.20;;;;;;;;;;4971724;28;25047;-76
2023/04/26 07:50:33;;;;;;;6.30;1.73;;;;;;;;;;4962394;28;25081;-76
2023/04/26 07:52:59;;;;;;;3.55;1.63;;;;;;;;;;4976343;28;25122;-76
2023/04/26 07:55:25;;;;;;;2.83;0.90;;;;;;;;;;4975459;28;25116;-76
2023/04/26 07:57:51;;;;;;;3.72;1.65;;;;;;;;;;4964785;28;25095;-76
2023/04/26 08:00:17;;;;;;;5.10;1.20;;;;;;;;;;4978344;28;25085;-76
2023/04/26 08:02:47;;;;;;;5.28;1.88;;;;;;;;;;4971670;28;25110;-77
2023/04/26 08:05:13;;;;;;;2.20;1.02;;;;;;;;;;4967311;28;25127;-76
2023/04/26 08:07:39;;;;;;;5.03;1.52;;;;;;;;;;4967829;28;25138;-76
2023/04/26 08:10:06;;;;;;;4.63;1.48;;;;;;;;;;4969611;28;25100;-76
2023/04/26 08:12:32;;;;;;;2.38;1.15;;;;;;;;;;4973812;28;25149;-77
2023/04/26 08:15:00;;;;;;;4.63;1.35;;;;;;;;;;4964270;28;25060;-79
2023/04/26 08:17:26;;;;;;;7.63;1.33;;;;;;;;;;4981800;28;25070;-78
2023/04/26 08:19:52;;;;;;;2.22;1.15;;;;;;;;;;4969027;28;25048;-79
2023/04/26 08:22:18;;;;;;;2.55;0.85;;;;;;;;;;4976428;28;25112;-77
2023/04/26 08:24:48;;;;;;;4.50;0.80;;;;;;;;;;4988766;28;25049;-77
2023/04/26 08:27:14;;;;;;;5.00;1.00;;;;;;;;;;4995537;28;25061;-78
2023/04/26 08:29:40;;;;;;;4.20;1.10;;;;;;;;;;4995204;28;25065;-79
2023/04/26 08:32:06;;;;;;;2.88;1.10;;;;;;;;;;4973097;28;25052;-77
2023/04/26 08:34:32;;;;;;;2.15;1.00;;;;;;;;;;4970255;28;26187;-78
2023/04/26 08:36:58;;;;;;;2.85;1.05;;;;;;;;;;4972765;28;25084;-79
2023/04/26 08:39:24;;;;;;;1.67;1.00;;;;;;;;;;4971946;28;25055;-78
2023/04/26 08:41:53;;;;;;;2.42;0.90;;;;;;;;;;4963247;28;25104;-77
2023/04/26 08:44:22;;;;;;;5.50;1.00;;;;;;;;;;4971172;28;25107;-77
2023/04/26 08:46:58;;;;;;;8.15;1.40;;;;;;;;;;4972907;28;25129;-77
2023/04/26 08:49:37;;;;;;;1.45;0.80;;;;;;;;;;4972441;28;25087;-77
2023/04/26 08:52:03;;;;;;;3.95;1.13;;;;;;;;;;4966917;28;25076;-76
2023/04/26 08:54:30;;;;;;;9.07;1.23;;;;;;;;;;4980632;28;25077;-76
2023/04/26 08:56:58;;;;;;;5.18;1.45;;;;;;;;;;4969919;28;25136;-77
2023/04/26 08:59:24;;;;;;;3.08;1.45;;;;;;;;;;4970879;28;25066;-78
2023/04/26 09:01:50;;;;;;;4.13;1.42;;;;;;;;;;4986450;28;25124;-76
2023/04/26 09:04:16;;;;;;;6.60;1.33;;;;;;;;;;4964795;28;25150;-78
2023/04/26 09:06:43;;;;;;;3.90;0.98;;;;;;;;;;4975864;28;25069;-75
2023/04/26 09:09:10;;;;;;;6.05;1.20;;;;;;;;;;4974646;28;25064;-77
2023/04/26 09:11:53;;;;;;;3.80;1.33;;;;;;;;;;4987813;28;25084;-77
2023/04/26 09:14:19;;;;;;;8.40;1.38;;;;;;;;;;4966793;28;25124;-75
2023/04/26 09:16:45;;;;;;;1.42;1.20;;;;;;;;;;4974586;28;25069;-77
2023/04/26 09:19:11;;;;;;;6.10;1.50;;;;;;;;;;4972969;28;26201;-77
2023/04/26 09:21:44;;;;;;;2.05;1.20;;;;;;;;;;4968701;28;25140;-77
2023/04/26 09:24:10;;;;;;;7.03;1.33;;;;;;;;;;4973952;28;25056;-77
2023/04/26 09:26:36;;;;;;;2.97;1.00;;;;;;;;;;4977361;28;25080;-77
2023/04/26 09:29:12;;;;;;;13.20;2.35;;;;;;;;;;4969126;28;25095;-78
2023/04/26 09:31:43;;;;;;;5.93;1.98;;;;;;;;;;4968820;28;25061;-75
2023/04/26 09:34:10;;;;;;;4.50;1.80;;;;;;;;;;4965582;28;25058;-75
2023/04/26 09:36:57;;;;;;;5.20;1.90;;;;;;;;;;4975113;28;25110;-74
2023/04/26 09:39:34;;;;;;;3.90;2.00;;;;;;;;;;4975100;28;25078;-77
2023/04/26 09:42:00;;;;;;;7.13;1.85;;;;;;;;;;4979910;28;25068;-77
2023/04/26 09:44:28;;;;;;;5.35;1.92;;;;;;;;;;4973281;28;25062;-77
2023/04/26 09:47:10;;;;;;;5.60;1.98;;;;;;;;;;4995261;28;25064;-79
2023/04/26 09:49:44;;;;;;;8.00;2.30;;;;;;;;;;4982536;28;25081;-76
2023/04/26 09:52:10;;;;;;;6.10;1.90;;;;;;;;;;4996823;28;25060;-76
2023/04/26 09:54:44;;;;;;;9.48;2.10;;;;;;;;;;4993994;28;25100;-76
2023/04/26 09:57:11;;;;;;;5.63;1.73;;;;;;;;;;4986432;28;25058;-76
2023/04/26 09:59:43;;;;;;;8.40;2.00;;;;;;;;;;4985781;28;25062;-77
2023/04/26 10:02:21;;;;;;;5.30;1.77;;;;;;;;;;4999311;28;25056;-77
2023/04/26 10:04:48;;;;;;;7.00;2.58;;;;;;;;;;4994447;28;25068;-76
2023/04/26 10:07:15;;;;;;;7.85;2.22;;;;;;;;;;4999546;28;25064;-78
2023/04/26 10:09:41;;;;;;;5.65;2.25;;;;;;;;;;4968180;28;25092;-79
2023/04/26 10:12:09;;;;;;;6.88;2.13;;;;;;;;;;4981714;28;25056;-79
2023/04/26 10:14:35;;;;;;;4.95;2.13;;;;;;;;;;4980542;28;25096;-76
2023/04/26 10:17:03;;;;;;;5.38;1.75;;;;;;;;;;4968823;28;25051;-77
2023/04/26 10:19:29;;;;;;;2.53;1.83;;;;;;;;;;4981568;28;25122;-77
2023/04/26 10:21:56;;;;;;;6.90;2.15;;;;;;;;;;4981915;28;25077;-78
2023/04/26 10:24:23;;;;;;;4.38;1.70;;;;;;;;;;4979179;28;25089;-77
2023/04/26 10:26:56;;;;;;;6.22;1.45;;;;;;;;;;4984272;28;25082;-77
2023/04/26 10:29:27;;;;;;;4.60;1.50;;;;;;;;;;4987837;28;25051;-77
2023/04/26 10:32:04;;;;;;;5.05;1.63;;;;;;;;;;4984251;28;25073;-77
2023/04/26 10:34:31;;;;;;;7.30;1.63;;;;;;;;;;4979903;28;25083;-77
2023/04/26 10:37:13;;;;;;;6.28;1.80;;;;;;;;;;4980553;28;25077;-77
2023/04/26 10:39:40;;;;;;;3.78;2.05;;;;;;;;;;4982269;28;25062;-77
2023/04/26 10:42:32;;;;;;;6.93;2.92;;;;;;;;;;4983174;28;25107;-77
2023/04/26 10:44:59;;;;;;;5.35;1.50;;;;;;;;;;4983193;28;25109;-77
2023/04/26 10:47:25;;;;;;;6.63;1.58;;;;;;;;;;4983885;28;25081;-76
2023/04/26 10:49:51;;;;;;;6.13;1.60;;;;;;;;;;4990027;28;25077;-76
2023/04/26 10:52:19;;;;;;;5.28;1.40;;;;;;;;;;4973185;28;25068;-76
2023/04/26 10:54:52;;;;;;;4.43;1.83;;;;;;;;;;4974546;28;25056;-76
2023/04/26 10:57:18;;;;;;;4.32;1.90;;;;;;;;;;4974046;28;25067;-76
2023/04/26 11:00:04;;;;;;;4.65;1.70;;;;;;;;;;4978675;28;25051;-77
2023/04/26 11:02:46;;;;;;;11.95;2.47;;;;;;;;;;4979089;28;25110;-76
2023/04/26 11:05:31;;;;;;;5.68;1.55;;;;;;;;;;4976798;28;25093;-77
2023/04/26 11:08:27;;;;;;;8.27;2.15;;;;;;;;;;4978102;28;25085;-75
2023/04/26 11:10:53;;;;;;;2.53;1.40;;;;;;;;;;4971243;28;25088;-77
2023/04/26 11:13:19;;;;;;;8.32;1.70;;;;;;;;;;4982481;28;25070;-77
2023/04/26 11:15:46;;;;;;;2.75;1.75;;;;;;;;;;4981389;28;25135;-75
2023/04/26 11:18:18;;;;;;;5.03;1.48;;;;;;;;;;4977754;28;25084;-79
2023/04/26 11:20:45;;;;;;;1.95;1.30;;;;;;;;;;4978721;28;25056;-76
2023/04/26 11:23:11;;;;;;;2.55;1.40;;;;;;;;;;4976403;28;25073;-76
2023/04/26 11:25:38;;;;;;;3.78;1.52;;;;;;;;;;4974719;28;25159;-75
2023/04/26 11:28:06;;;;;;;8.35;2.05;;;;;;;;;;4981789;28;25066;-76
2023/04/26 11:30:32;;;;;;;2.67;1.50;;;;;;;;;;4976443;28;25079;-75
2023/04/26 11:33:05;;;;;;;3.67;2.45;;;;;;;;;;4980572;28;25102;-75
2023/04/26 11:35:31;;;;;;;;;;;;;;;;;;4973868;28;25059;-76
2023/04/26 11:37:59;;;;;;;6.35;1.45;;;9.30;51.70;;;;;;4978679;28;25124;-76
2023/04/26 11:40:26;;;;;;;7.75;2.03;;;;;;;;;;4988748;28;25067;-76
2023/04/26 11:42:52;;;;;;;2.42;1.52;;;;;;;;;;4993085;28;25145;-75
2023/04/26 11:45:18;;;;;;;6.03;2.17;;;;;;;;;;4988921;28;25094;-74
2023/04/26 11:47:45;;;;;;;8.88;2.00;;;;;;;;;;4974670;28;25066;-74
2023/04/26 11:50:11;;;;;;;3.08;1.42;;;;;;;;;;4983558;28;25069;-75
2023/04/26 11:52:38;;;;;;;2.40;1.50;;;;;;;;;;4981134;28;25065;-74
2023/04/26 11:55:07;;;;;;;7.00;1.80;;;;;;;;;;4973261;28;25073;-76
2023/04/26 11:57:34;;;;;;;6.30;2.35;;;;;;;;;;4987418;28;25070;-77
2023/04/26 12:00:10;;;;;;;1.48;1.23;;;;;;;;;;4973221;28;25050;-76
2023/04/26 12:02:36;;;;;;;5.50;1.58;;;;;;;;;;4979656;28;25089;-76
2023/04/26 12:05:02;;;;;;;5.28;1.38;;;;;;;;;;4980400;28;25079;-74
2023/04/26 12:07:32;;;;;;;3.00;1.63;;;;;;;;;;4975569;28;25055;-76
2023/04/26 12:10:07;;;;;;;5.55;1.40;;;;;;;;;;4974460;28;25067;-76
2023/04/26 12:12:33;;;;;;;9.55;1.80;;;;;;;;;;4966850;28;25078;-76
2023/04/26 12:15:00;;;;;;;4.32;1.67;;;;;;;;;;4975579;28;25122;-77
2023/04/26 12:17:27;;;;;;;5.82;2.08;;;;;;;;;;4984206;28;25058;-77
2023/04/26 12:19:54;;;;;;;4.50;2.03;;;;;;;;;;4975272;28;25056;-74
2023/04/26 12:22:21;;;;;;;4.32;2.10;;;;;;;;;;4965826;28;25068;-76
2023/04/26 12:24:47;;;;;;;3.80;1.70;;;;;;;;;;4970640;28;25047;-74
2023/04/26 12:27:19;;;;;;;8.27;1.60;;;;;;;;;;4979028;28;25074;-74
2023/04/26 12:29:45;;;;;;;5.38;1.40;;;;;;;;;;4984692;28;25058;-75
2023/04/26 12:32:11;;;;;;;3.38;1.67;;;;;;;;;;4979064;28;25072;-76
2023/04/26 12:34:38;;;;;;;5.35;1.70;;;;;;;;;;4975334;28;25145;-75
2023/04/26 12:37:04;;;;;;;5.22;2.13;;;;;;;;;;4974796;28;25080;-76
2023/04/26 12:39:30;;;;;;;3.90;1.40;;;;;;;;;;4976124;28;25056;-75
2023/04/26 12:41:56;;;;;;;2.92;1.50;;;;;;;;;;4970918;28;25087;-72
2023/04/26 12:44:22;;;;;;;3.63;1.50;;;;;;;;;;4972761;28;25080;-74
2023/04/26 12:46:48;;;;;;;1.98;1.38;;;;;;;;;;4978436;28;25142;-74
2023/04/26 12:49:14;;;;;;;2.88;1.55;;;;;;;;;;4981558;28;25063;-73
2023/04/26 12:51:40;;;;;;;2.60;1.75;;;;;;;;;;4975626;28;25061;-72
2023/04/26 12:54:06;;;;;;;2.88;1.63;;;;;;;;;;4978105;28;25182;-73
2023/04/26 12:56:34;;;;;;;4.57;1.88;;;;;;;;;;4974682;28;25157;-72
2023/04/26 12:59:00;;;;;;;6.47;2.35;;;;;;;;;;4973453;28;25082;-73
2023/04/26 13:01:26;;;;;;;2.13;1.40;;;;;;;;;;4970577;28;25054;-73
2023/04/26 13:03:52;;;;;;;3.97;1.55;;;;;;;;;;4972398;28;25135;-75
2023/04/26 13:06:18;;;;;;;3.63;1.52;;;;;;;;;;4973145;28;25086;-73
2023/04/26 13:08:44;;;;;;;3.13;1.70;;;;;;;;;;4965629;28;25067;-75
2023/04/26 13:11:09;;;;;;;6.43;1.90;;;;;;;;;;4987605;28;25069;-74
2023/04/26 13:13:35;;;;;;;3.63;1.40;;;;;;;;;;4978223;28;25068;-74
2023/04/26 13:16:01;;;;;;;2.63;1.65;;;;;;;;;;4976748;28;25108;-74
2023/04/26 13:18:27;;;;;;;2.47;1.42;;;;;;;;;;4980183;28;25059;-74
2023/04/26 13:20:53;;;;;;;4.53;1.52;;;;;;;;;;4964689;28;25072;-75
2023/04/26 13:23:19;;;;;;;7.43;1.88;;;;;;;;;;4965047;28;25084;-73
2023/04/26 13:25:45;;;;;;;6.05;1.80;;;;;;;;;;4971862;28;25082;-74
2023/04/26 13:28:11;;;;;;;7.32;1.98;;;;;;;;;;4964064;28;25094;-73
2023/04/26 13:30:37;;;;;;;2.50;1.73;;;;;;;;;;4965137;28;25094;-74
2023/04/26 13:33:04;;;;;;;4.50;1.88;;;;;;;;;;4963600;28;25084;-74
2023/04/26 13:35:30;;;;;;;4.75;1.55;;;;;;;;;;4974018;28;25157;-75
2023/04/26 13:37:56;;;;;;;3.35;1.65;;;;;;;;;;4966035;28;25170;-73
2023/04/26 13:40:22;;;;;;;8.30;2.10;;;;;;;;;;4969523;28;25069;-74
2023/04/26 13:42:48;;;;;;;3.97;2.00;;;;;;;;;;4965558;28;25054;-77
2023/04/26 13:45:14;;;;;;;3.58;1.73;;;;;;;;;;4966440;28;25069;-74
2023/04/26 13:47:40;;;;;;;5.82;1.67;;;;;;;;;;4973237;28;25075;-74
2023/04/26 13:50:06;;;;;;;6.75;1.65;;;;;;;;;;4975782;28;25087;-75
2023/04/26 13:52:32;;;;;;;4.80;1.92;;;;;;;;;;4969873;28;25067;-73
2023/04/26 13:54:58;;;;;;;5.40;2.25;;;;;;;;;;4977706;28;25082;-74
2023/04/26 13:57:24;;;;;;;7.32;2.15;;;;;;;;;;4968229;28;25112;-75
2023/04/26 13:59:50;;;;;;;5.45;1.80;;;;;;;;;;4978717;28;25162;-76
2023/04/26 14:02:16;;;;;;;2.60;1.80;;;;;;;;;;4969120;28;25158;-76
2023/04/26 14:04:42;;;;;;;4.68;1.60;;;;;;;;;;4973152;28;25075;-75
2023/04/26 14:07:09;;;;;;;5.55;1.67;;;;;;;;;;4968727;28;25052;-76
2023/04/26 14:09:35;;;;;;;4.50;1.63;;;;;;;;;;4985402;28;25072;-74
2023/04/26 14:12:01;;;;;;;3.25;1.83;;;;;;;;;;4973359;28;25061;-75
2023/04/26 14:14:27;;;;;;;4.65;1.75;;;;;;;;;;4970704;28;25049;-73
2023/04/26 14:16:53;;;;;;;5.22;1.55;;;;;;;;;;4977167;28;25076;-74
2023/04/26 14:19:19;;;;;;;4.88;1.75;;;;;;;;;;4973093;28;25057;-73
2023/04/26 14:21:45;;;;;;;4.82;1.60;;;;;;;;;;4969512;28;25080;-74
2023/04/26 14:24:11;;;;;;;5.80;1.40;;;;;;;;;;4986165;28;25114;-74
2023/04/26 14:26:37;;;;;;;4.85;1.88;;;;;;;;;;4969808;28;25075;-74
2023/04/26 14:29:06;;;;;;;3.92;1.42;;;;;;;;;;4968434;28;25101;-73
2023/04/26 14:31:32;;;;;;;3.85;1.88;;;;;;;;;;4965970;28;25052;-74
2023/04/26 14:33:58;;;;;;;4.00;1.83;;;;;;;;;;4968563;28;25142;-74
2023/04/26 14:36:24;;;;;;;5.95;1.75;;;;;;;;;;4966883;28;25064;-75
2023/04/26 14:38:50;;;;;;;6.55;1.80;;;;;;;;;;4968639;28;25072;-74